Time;durP1;ratioP1;P1;durP2;ratioP2;P2;SDS_P1;SDS_P2;PMS_P1;PMS_P2;Temp;Humidity;BMP_temperature;BMP_pressure;BME280_temperature;BME280_humidity;BME280_pressure;Samples;Min_cycle;Max_cycle;Signal;HPM_P1;HPM_P2
2022/09/17 00:03:05;;;;;;;;;;;;;;;9.45;94.31;99724.25;10567061;28;20039;-78
2022/09/17 00:08:12;;;;;;;11.95;3.03;;;;;;;10.02;92.85;99738.06;10566266;28;20022;-77
2022/09/17 00:13:15;;;;;;;12.45;3.05;;;;;;;10.28;90.79;99732.19;10560990;28;20044;-77
2022/09/17 00:18:18;;;;;;;13.07;2.55;;;;;;;9.73;92.76;99730.72;10567241;28;20036;-77
2022/09/17 00:23:22;;;;;;;20.27;3.38;;;;;;;9.71;93.87;99737.22;10574475;28;20156;-77
2022/09/17 00:28:25;;;;;;;9.52;2.95;;;;;;;9.79;93.97;99741.88;10565721;28;20097;-77
2022/09/17 00:33:28;;;;;;;11.00;2.90;;;;;;;9.49;93.61;99736.41;10558676;28;20138;-78
2022/09/17 00:38:32;;;;;;;;;;;;;;;9.61;93.37;99739.00;10557246;28;20044;-78
2022/09/17 00:43:39;;;;;;;15.68;2.92;;;;;;;9.81;91.60;99735.41;10560104;28;20007;-78
2022/09/17 00:48:41;;;;;;;13.70;2.85;;;;;;;9.47;92.20;99743.72;10560002;28;20070;-78
2022/09/17 00:53:46;;;;;;;;;;;;;;;9.28;93.62;99738.25;10557865;28;20114;-77
2022/09/17 00:58:50;;;;;;;20.20;3.85;;;;;;;9.76;92.29;99742.16;10548454;28;20407;-77
2022/09/17 01:03:53;;;;;;;17.67;3.88;;;;;;;9.54;91.57;99740.50;10556400;28;20075;-77
2022/09/17 01:09:10;;;;;;;;;;;;;;;9.78;90.93;99748.25;10554189;28;20467;-78
2022/09/17 01:14:31;;;;;;;11.35;3.13;;;;;;;9.60;92.52;99751.56;10568681;28;20229;-78
2022/09/17 01:20:03;;;;;;;15.93;3.00;;;;;;;9.53;91.20;99752.22;10571698;28;20082;-78
2022/09/17 01:25:23;;;;;;;15.05;3.20;;;;;;;9.31;93.23;99756.75;10526253;28;20482;-78
2022/09/17 01:30:35;;;;;;;17.02;3.28;;;;;;;9.37;92.93;99752.69;10559021;28;20082;-78
2022/09/17 01:35:47;;;;;;;13.45;3.22;;;;;;;9.64;91.20;99763.72;10550427;28;20066;-78
2022/09/17 01:40:55;;;;;;;17.92;2.90;;;;;;;9.51;91.50;99761.22;10564337;28;20487;-78
2022/09/17 01:46:07;;;;;;;18.90;3.38;;;;;;;9.20;91.68;99763.03;10560319;28;20036;-78
2022/09/17 01:51:14;;;;;;;14.70;2.42;;;;;;;8.99;91.82;99763.00;10561690;27;20040;-77
2022/09/17 01:56:20;;;;;;;18.33;3.17;;;;;;;9.20;91.51;99775.59;10537351;28;20160;-77
2022/09/17 02:01:29;;;;;;;18.55;2.55;;;;;;;9.04;92.50;99770.66;10562882;28;20190;-77
2022/09/17 02:06:37;;;;;;;17.67;2.80;;;;;;;9.36;90.39;99767.09;10563146;28;20043;-77
2022/09/17 02:11:42;;;;;;;19.70;3.08;;;;;;;9.44;90.06;99775.31;10559346;28;20089;-77
2022/09/17 02:16:51;;;;;;;19.08;3.35;;;;;;;9.74;88.54;99761.09;10567258;28;20123;-78
2022/09/17 02:22:02;;;;;;;23.75;4.65;;;;;;;9.66;88.52;99771.63;10555737;28;20413;-78
2022/09/17 02:27:12;;;;;;;16.73;2.80;;;;;;;9.48;89.57;99777.59;10580304;22;20110;-77
2022/09/17 02:32:16;;;;;;;22.40;4.25;;;;;;;9.54;89.07;99780.72;10562262;28;20471;-77
2022/09/17 02:37:19;;;;;;;24.98;3.97;;;;;;;8.93;91.92;99781.44;10518795;28;20060;-78
2022/09/17 02:42:31;;;;;;;21.42;4.60;;;;;;;8.95;91.08;99793.72;10519742;28;20063;-77
2022/09/17 02:47:58;;;;;;;22.08;4.95;;;;;;;8.96;90.82;99791.88;10528457;28;20087;-75
2022/09/17 02:53:19;;;;;;;22.67;4.07;;;;;;;8.94;90.81;99788.47;10526371;28;20092;-77
2022/09/17 02:58:28;;;;;;;21.38;4.50;;;;;;;9.25;88.77;99784.09;10524796;28;20102;-77
2022/09/17 03:03:37;;;;;;;15.05;3.80;;;;;;;8.73;90.06;99775.91;10502446;28;20075;-77
2022/09/17 03:08:42;;;;;;;35.00;4.65;;;;;;;8.86;90.26;99782.91;10518443;28;20136;-77
2022/09/17 03:13:45;;;;;;;27.27;4.72;;;;;;;8.73;90.37;99783.09;10497370;28;20067;-77
2022/09/17 03:18:49;;;;;;;17.38;3.30;;;;;;;8.64;89.35;99782.03;10505727;28;20124;-77
2022/09/17 03:23:52;;;;;;;19.40;3.67;;;;;;;8.76;88.92;99775.66;10523965;28;20115;-77
2022/09/17 03:28:54;;;;;;;23.55;4.95;;;;;;;8.75;88.14;99783.81;10561944;28;20047;-77
2022/09/17 03:33:58;;;;;;;;;;;;;;;8.57;88.34;99780.84;10548340;28;20048;-77
2022/09/17 03:39:02;;;;;;;22.67;4.63;;;;;;;8.55;88.09;99796.16;10522885;28;19974;-76
2022/09/17 03:44:05;;;;;;;19.63;4.20;;;;;;;8.32;89.01;99803.38;10518197;28;20045;-77
2022/09/17 03:49:09;;;;;;;19.38;3.28;;;;;;;8.54;87.22;99818.56;10514566;28;20115;-77
2022/09/17 03:54:12;;;;;;;12.02;3.13;;;;;;;8.38;87.47;99806.38;10532076;28;20100;-78
2022/09/17 03:59:15;;;;;;;;;;;;;;;8.14;87.36;99819.91;10521666;28;20084;-78
2022/09/17 04:04:19;;;;;;;13.10;2.58;;;;;;;8.23;86.97;99822.81;10515837;28;20460;-78
2022/09/17 04:09:22;;;;;;;19.88;3.15;;;;;;;8.14;86.96;99827.09;10520318;28;20132;-78
2022/09/17 04:14:24;;;;;;;;;;;;;;;8.08;86.50;99833.78;10531815;28;20036;-78
2022/09/17 04:19:28;;;;;;;26.20;4.60;;;;;;;8.13;85.88;99831.59;10526075;28;19920;-78
2022/09/17 04:24:31;;;;;;;23.23;4.75;;;;;;;8.23;85.15;99837.06;10546862;28;20051;-78
2022/09/17 04:29:34;;;;;;;;;;;;;;;8.26;84.92;99847.53;10540726;28;20115;-78
2022/09/17 04:34:38;;;;;;;10.50;2.47;;;;;;;7.98;86.03;99843.53;10542672;28;19974;-78
2022/09/17 04:39:41;;;;;;;13.32;2.65;;;;;;;8.12;85.35;99840.59;10521074;28;20384;-77
2022/09/17 04:44:43;;;;;;;;;;;;;;;7.88;85.47;99842.53;10518445;28;20055;-78
2022/09/17 04:49:48;;;;;;;14.55;2.92;;;;;;;8.02;84.45;99838.78;10530084;28;19924;-79
2022/09/17 04:54:50;;;;;;;13.70;2.70;;;;;;;8.13;84.17;99838.78;10532941;28;20133;-79
2022/09/17 04:59:53;;;;;;;;;;;;;;;7.87;84.80;99846.16;10526390;28;20052;-78
2022/09/17 05:04:57;;;;;;;14.63;2.42;;;;;;;8.07;84.46;99840.13;10533101;28;19994;-79
2022/09/17 05:10:00;;;;;;;31.58;3.55;;;;;;;7.85;84.86;99848.97;10549199;28;20044;-78
2022/09/17 05:15:03;;;;;;;;;;;;;;;7.79;84.48;99859.28;10538703;28;20040;-78
2022/09/17 05:20:08;;;;;;;20.58;2.92;;;;;;;7.67;84.69;99867.28;10529087;28;20359;-79
2022/09/17 05:25:11;;;;;;;13.00;1.95;;;;;;;7.74;84.60;99873.03;10526178;28;20041;-78
2022/09/17 05:30:14;;;;;;;18.98;1.98;;;;;;;7.63;84.43;99876.53;10525333;28;20059;-78
2022/09/17 05:35:18;;;;;;;24.83;3.65;;;;;;;7.94;83.55;99874.13;10525008;28;20061;-78
2022/09/17 05:40:21;;;;;;;20.63;3.63;;;;;;;7.84;83.60;99867.78;10535735;28;20044;-78
2022/09/17 05:45:24;;;;;;;16.88;2.30;;;;;;;7.22;85.08;99875.16;10529136;28;20058;-77
2022/09/17 05:50:29;;;;;;;;;;;;;;;7.83;84.12;99877.66;10510525;28;20453;-78
2022/09/17 05:55:33;;;;;;;19.52;2.40;;;;;;;7.90;83.53;99880.72;10534949;28;19960;-78
2022/09/17 06:00:36;;;;;;;16.45;2.83;;;;;;;7.33;84.83;99887.72;10538983;28;20083;-77
2022/09/17 06:06:29;;;;;;;17.75;2.60;;;;;;;8.17;82.22;99880.34;11748856;22;20043;-77
2022/09/17 06:11:34;;;;;;;;;;;;;;;8.22;81.14;99890.69;10535107;28;20053;-77
2022/09/17 06:16:37;;;;;;;20.55;3.50;;;;;;;8.35;81.03;99899.47;10521269;28;19920;-77
2022/09/17 06:21:39;;;;;;;16.42;3.22;;;;;;;8.71;79.63;99903.72;10545709;22;20143;-79
2022/09/17 06:26:43;;;;;;;;;;;;;;;8.94;78.13;99907.22;10540256;28;20070;-78
2022/09/17 06:31:47;;;;;;;9.30;1.70;;;;;;;9.38;77.22;99910.72;10528611;28;19927;-77
2022/09/17 06:36:50;;;;;;;15.80;2.20;;;;;;;9.11;77.29;99915.69;10494405;28;20079;-79
2022/09/17 06:41:54;;;;;;;;;;;;;;;9.12;77.82;99912.03;10474209;28;20047;-79
2022/09/17 06:46:57;;;;;;;12.38;1.83;;;;;;;8.98;77.68;99913.16;10483379;28;19932;-79
2022/09/17 06:52:00;;;;;;;;;;;;;;;9.59;76.30;99916.09;10488470;28;20123;-79
2022/09/17 06:57:05;;;;;;;16.55;2.63;;;;;;;9.45;75.33;99916.41;10478007;28;20011;-78
2022/09/17 07:02:09;;;;;;;11.05;2.38;;;;;;;9.22;76.74;99907.63;10486301;28;20436;-78
2022/09/17 07:07:12;;;;;;;12.85;2.20;;;;;;;9.37;76.33;99913.53;10493807;28;20037;-78
2022/09/17 07:12:16;;;;;;;9.25;1.27;;;;;;;9.42;75.07;99919.34;10477910;28;20041;-77
2022/09/17 07:17:19;;;;;;;15.20;1.67;;;;;;;9.03;75.56;99925.22;10467642;28;20076;-77
2022/09/17 07:22:24;;;;;;;9.20;2.03;;;;;;;9.70;74.37;99912.50;10476452;28;20041;-78
2022/09/17 07:27:29;;;;;;;11.88;2.17;;;;;;;9.36;74.28;99931.44;10486612;28;20051;-78
2022/09/17 07:32:32;;;;;;;8.95;1.88;;;;;;;9.75;72.53;99921.00;10497209;28;20060;-77
2022/09/17 07:37:35;;;;;;;16.30;2.65;;;;;;;9.96;72.33;99917.53;10518218;28;20037;-77
2022/09/17 07:42:39;;;;;;;10.95;2.15;;;;;;;10.17;72.05;99907.59;10486177;28;20062;-77
2022/09/17 07:47:43;;;;;;;13.07;1.85;;;;;;;10.34;71.39;99907.00;10498265;28;20072;-78
2022/09/17 07:52:46;;;;;;;11.20;1.90;;;;;;;10.25;71.85;99907.78;10475124;28;20045;-79
2022/09/17 07:57:53;;;;;;;8.30;1.30;;;;;;;10.40;69.65;99913.66;10488381;28;20049;-79
2022/09/17 08:02:57;;;;;;;12.30;1.75;;;;;;;10.57;68.19;99904.13;10512121;28;20039;-77
2022/09/17 08:08:00;;;;;;;13.98;2.08;;;;;;;10.76;67.47;99889.91;10523257;28;20041;-79
2022/09/17 08:13:04;;;;;;;16.00;1.73;;;;;;;11.15;67.42;99908.81;10508421;28;20123;-78
2022/09/17 08:18:07;;;;;;;11.65;2.17;;;;;;;10.99;67.72;99912.00;10477491;28;20144;-79
2022/09/17 08:23:10;;;;;;;10.45;2.25;;;;;;;11.29;65.82;99913.78;10489159;28;20085;-79
2022/09/17 08:28:14;;;;;;;13.02;2.13;;;;;;;11.59;65.06;99896.63;10479194;28;20080;-77
2022/09/17 08:33:17;;;;;;;12.80;1.85;;;;;;;11.66;65.25;99900.47;10476208;28;20061;-78
2022/09/17 08:38:21;;;;;;;12.70;2.25;;;;;;;11.71;63.89;99898.19;10521345;28;20047;-78
2022/09/17 08:43:25;;;;;;;13.70;2.40;;;;;;;12.04;64.59;99901.41;10513251;28;20052;-79
2022/09/17 08:48:37;;;;;;;15.40;3.20;;;;;;;12.16;63.34;99902.91;10492156;28;20068;-78
2022/09/17 08:53:52;;;;;;;9.13;1.50;;;;;;;12.59;61.29;99903.34;10490494;28;20056;-78
2022/09/17 08:59:10;;;;;;;9.85;2.25;;;;;;;12.76;61.34;99907.09;10478003;28;20110;-78
2022/09/17 09:04:36;;;;;;;9.90;1.50;;;;;;;13.19;58.96;99897.44;10503373;28;20048;-79
2022/09/17 09:09:45;;;;;;;10.20;1.63;;;;;;;13.01;58.90;99894.75;10500268;28;20079;-78
2022/09/17 09:14:55;;;;;;;6.50;1.60;;;;;;;13.13;58.28;99888.13;10530821;28;20028;-76
2022/09/17 09:19:58;;;;;;;5.07;1.80;;;;;;;12.48;57.97;99885.53;10497711;28;20049;-78
2022/09/17 09:25:11;;;;;;;10.70;1.48;;;;;;;12.02;59.60;99876.47;10465398;28;20463;-78
2022/09/17 09:30:17;;;;;;;7.53;1.35;;;;;;;12.44;55.74;99897.59;10508525;28;20044;-77
2022/09/17 09:35:23;;;;;;;7.55;1.20;;;;;;;13.46;53.18;99902.78;10502418;28;20044;-77
2022/09/17 09:40:34;;;;;;;7.50;2.03;;;;;;;13.66;53.10;99908.91;10497903;28;20486;-78
2022/09/17 09:45:59;;;;;;;14.13;1.95;;;;;;;14.79;50.79;99908.94;10483898;28;20800;-78
2022/09/17 09:51:16;;;;;;;5.68;0.80;;;;;;;14.34;50.44;99918.13;10462523;28;20053;-79
2022/09/17 09:56:43;;;;;;;3.38;1.15;;;;;;;13.93;51.26;99907.06;10474216;28;20043;-76
2022/09/17 10:01:47;;;;;;;5.22;0.80;;;;;;;14.01;50.06;99911.66;10462988;28;20048;-78
2022/09/17 10:06:53;;;;;;;5.65;1.00;;;;;;;13.93;49.93;99898.94;10494639;28;20040;-78
2022/09/17 10:12:05;;;;;;;5.18;0.90;;;;;;;14.58;50.02;99910.19;10472632;28;20151;-78
2022/09/17 10:17:18;;;;;;;8.07;1.13;;;;;;;14.48;49.41;99898.66;10502031;28;20052;-75
2022/09/17 10:22:25;;;;;;;;;;;;;;;14.03;51.75;99899.72;10470849;28;20051;-78
2022/09/17 10:27:30;;;;;;;8.18;1.05;;;;;;;13.07;52.61;99901.38;10464189;28;19991;-78
2022/09/17 10:32:35;;;;;;;5.60;1.45;;;;;;;12.90;52.41;99893.09;10470302;28;20091;-78
2022/09/17 10:37:44;;;;;;;5.50;0.90;;;;;;;14.07;49.29;99908.34;10472664;28;20064;-78
2022/09/17 10:42:47;;;;;;;7.88;0.98;;;;;;;13.80;48.03;99855.34;10518770;28;20048;-78
2022/09/17 10:47:52;;;;;;;4.00;1.00;;;;;;;14.83;48.58;99884.09;10477312;28;20052;-78
2022/09/17 10:52:57;;;;;;;9.88;1.20;;;;;;;16.31;45.93;99874.19;10468115;28;20048;-78
2022/09/17 10:58:10;;;;;;;6.28;1.17;;;;;;;14.56;48.90;99877.09;10497931;28;20036;-77
2022/09/17 11:04:00;;;;;;;6.47;1.00;;;;;;;15.40;47.21;99848.22;10492353;28;20040;-78
2022/09/17 11:09:15;;;;;;;3.80;0.80;;;;;;;16.11;45.21;99843.91;10470952;28;20056;-78
2022/09/17 11:14:40;;;;;;;5.65;0.88;;;;;;;14.59;47.70;99848.88;10480315;28;20067;-78
2022/09/17 11:19:57;;;;;;;5.55;0.77;;;;;;;14.03;50.77;99882.66;10466764;28;20071;-78
2022/09/17 11:25:20;;;;;;;2.47;0.50;;;;;;;14.85;49.02;99858.75;10501382;28;20067;-79
2022/09/17 11:30:25;;;;;;;2.05;0.40;;;;;;;14.99;47.00;99853.53;10498567;28;20071;-79
2022/09/17 11:35:35;;;;;;;1.80;0.65;;;;;;;16.11;45.38;99848.47;10488811;28;20075;-79
2022/09/17 11:40:43;;;;;;;3.33;0.50;;;;;;;14.91;47.18;99856.22;10482872;28;20041;-79
2022/09/17 11:45:56;;;;;;;1.80;0.40;;;;;;;15.21;45.67;99843.94;10473670;28;20065;-79
2022/09/17 11:51:04;;;;;;;4.97;1.00;;;;;;;15.08;46.02;99858.97;10469502;28;20508;-79
2022/09/17 11:56:16;;;;;;;2.75;0.57;;;;;;;14.96;46.97;99855.75;10479637;28;20077;-78
2022/09/17 12:01:24;;;;;;;6.10;0.97;;;;;;;14.94;49.25;99839.66;10481395;28;20048;-79
2022/09/17 12:06:36;;;;;;;5.18;1.05;;;;;;;15.76;47.07;99838.91;10486727;28;20135;-79
2022/09/17 12:11:44;;;;;;;3.80;0.63;;;;;;;15.34;45.56;99838.06;10495362;28;20080;-79
2022/09/17 12:16:51;;;;;;;3.00;0.50;;;;;;;15.50;45.31;99841.81;10454021;28;20080;-79
2022/09/17 12:22:00;;;;;;;1.73;0.22;;;;;;;14.56;45.20;99846.47;10474144;28;20044;-79
2022/09/17 12:27:24;;;;;;;2.67;0.70;;;;;;;14.55;45.74;99842.94;10511494;28;20048;-75
2022/09/17 12:32:42;;;;;;;5.38;0.85;;;;;;;14.32;46.98;99831.00;10493238;28;20099;-78
2022/09/17 12:37:56;;;;;;;6.60;1.08;;;;;;;14.48;47.09;99817.59;10495179;28;20049;-78
2022/09/17 12:43:17;;;;;;;6.97;0.90;;;;;;;16.95;44.11;99818.97;10506271;28;20041;-77
2022/09/17 12:48:40;;;;;;;4.65;0.60;;;;;;;17.01;41.76;99813.69;10507767;28;20040;-79
2022/09/17 12:53:56;;;;;;;5.45;0.98;;;;;;;17.28;41.21;99813.31;10498803;28;20041;-79
2022/09/17 12:59:07;;;;;;;3.63;0.95;;;;;;;17.91;40.09;99788.47;10500566;28;20056;-77
2022/09/17 13:04:24;;;;;;;6.00;1.05;;;;;;;16.31;42.41;99786.63;10508902;28;20036;-77
2022/09/17 13:10:11;;;;;;;2.63;0.52;;;;;;;14.15;46.95;99811.16;10492277;28;20061;-79
2022/09/17 13:15:36;;;;;;;3.80;0.90;;;;;;;16.15;43.14;99809.16;10484836;28;20139;-78
2022/09/17 13:20:52;;;;;;;5.55;0.90;;;;;;;15.03;44.93;99771.06;10501486;28;20079;-79
2022/09/17 13:26:04;;;;;;;4.38;1.05;;;;;;;13.22;50.12;99806.31;10487164;28;20063;-78
2022/09/17 13:31:07;;;;;;;5.43;1.20;;;;;;;13.91;49.73;99803.78;10493830;28;20052;-78
2022/09/17 13:36:36;;;;;;;9.15;1.15;;;;;;;15.60;45.16;99794.56;10499093;28;20101;-76
2022/09/17 13:41:42;;;;;;;5.53;0.98;;;;;;;13.93;48.36;99780.16;10496296;28;20051;-78
2022/09/17 13:46:46;;;;;;;1.98;0.63;;;;;;;15.66;42.46;99803.88;10500513;28;20036;-77
2022/09/17 13:51:53;;;;;;;3.63;1.00;;;;;;;15.97;41.66;99774.19;10487899;28;20401;-78
2022/09/17 13:57:11;;;;;;;1.75;0.60;;;;;;;16.73;39.96;99797.09;10498837;28;20047;-77
2022/09/17 14:02:36;;;;;;;4.75;0.68;;;;;;;16.24;42.32;99807.28;10495090;28;20045;-78
2022/09/17 14:07:47;;;;;;;3.13;0.70;;;;;;;14.89;45.13;99827.66;10493938;28;20088;-77
2022/09/17 14:13:01;;;;;;;3.92;0.70;;;;;;;14.82;46.91;99813.97;10472162;28;20096;-80
2022/09/17 14:18:52;;;;;;;6.65;1.23;;;;;;;14.29;48.41;99805.16;10489915;28;20072;-79
2022/09/17 14:23:58;;;;;;;6.90;1.10;;;;;;;13.83;49.89;99812.69;10432411;28;20068;-78
2022/09/17 14:29:11;;;;;;;8.85;1.20;;;;;;;15.02;48.36;99834.28;10480365;28;20041;-77
2022/09/17 14:34:21;;;;;;;10.65;1.15;;;;;;;14.40;49.91;99822.97;10476306;28;20064;-79
2022/09/17 14:39:28;;;;;;;6.50;1.10;;;;;;;13.69;52.37;99813.28;10517906;28;20378;-79
2022/09/17 14:44:34;;;;;;;7.53;1.10;;;;;;;14.12;52.10;99812.34;10496143;28;20044;-79
2022/09/17 14:49:39;;;;;;;5.45;1.35;;;;;;;13.91;52.64;99828.09;10487847;28;20079;-78
2022/09/17 14:54:43;;;;;;;5.13;1.30;;;;;;;15.32;49.75;99798.63;10478858;28;20462;-78
2022/09/17 14:59:51;;;;;;;8.40;1.48;;;;;;;15.20;49.21;99812.50;10488039;28;20072;-79
2022/09/17 15:04:53;;;;;;;6.20;1.10;;;;;;;14.34;51.97;99813.63;10465100;28;20108;-78
2022/09/17 15:10:08;;;;;;;4.50;1.15;;;;;;;14.54;51.46;99808.81;10469703;28;20104;-78
2022/09/17 15:15:19;;;;;;;5.30;1.60;;;;;;;14.10;53.36;99805.41;10478299;28;20520;-79
2022/09/17 15:20:27;;;;;;;7.15;1.25;;;;;;;15.38;50.92;99801.53;10481321;28;20068;-78
2022/09/17 15:25:31;;;;;;;6.97;0.90;;;;;;;14.87;50.33;99794.56;10469511;28;20087;-78
2022/09/17 15:30:35;;;;;;;3.63;0.95;;;;;;;14.58;50.23;99788.56;10453886;28;20041;-79
2022/09/17 15:35:39;;;;;;;9.25;1.25;;;;;;;14.02;49.39;99799.97;10468092;28;20167;-78
2022/09/17 15:40:43;;;;;;;5.28;1.08;;;;;;;14.31;48.64;99796.88;10474900;28;20045;-79
2022/09/17 15:45:47;;;;;;;6.20;1.63;;;;;;;14.27;50.25;99793.66;10458121;28;20102;-77
2022/09/17 15:50:52;;;;;;;8.38;1.30;;;;;;;13.59;50.82;99793.63;10497052;28;20067;-77
2022/09/17 15:56:01;;;;;;;8.85;1.35;;;;;;;13.85;51.05;99807.09;10496868;28;20044;-78
2022/09/17 16:06:47;;;;;;;8.25;1.33;;;;;;;14.28;51.08;99802.59;10516201;27;20439;-79
2022/09/17 16:11:49;;;;;;;5.40;1.10;;;;;;;15.33;48.88;99809.28;10523572;28;20076;-77
2022/09/17 16:16:55;;;;;;;4.05;1.00;;;;;;;14.42;50.01;99812.81;10515186;28;20040;-76
2022/09/17 16:21:59;;;;;;;6.82;1.77;;;;;;;14.02;51.56;99806.22;10529884;28;20048;-77
2022/09/17 16:27:03;;;;;;;9.38;1.30;;;;;;;13.27;52.90;99820.19;10531325;28;20039;-77
2022/09/17 16:32:08;;;;;;;4.45;0.73;;;;;;;13.03;53.11;99830.75;10504555;28;20071;-79
2022/09/17 16:37:12;;;;;;;8.93;1.67;;;;;;;12.52;58.74;99872.63;10509272;28;20472;-78
2022/09/17 16:42:15;;;;;;;7.15;1.10;;;;;;;11.80;66.69;99888.41;10514311;28;20072;-78
2022/09/17 16:47:18;;;;;;;6.43;0.73;;;;;;;10.81;69.06;99882.28;10511360;28;20520;-77
2022/09/17 16:52:22;;;;;;;5.15;0.85;;;;;;;10.70;70.24;99866.28;10506306;28;20044;-78
2022/09/17 16:57:25;;;;;;;7.95;1.27;;;;;;;10.41;70.91;99875.06;10518902;28;20056;-79
2022/09/17 17:02:28;;;;;;;10.32;0.90;;;;;;;10.69;71.39;99880.69;10522745;28;20060;-76
2022/09/17 17:07:32;;;;;;;4.38;1.13;;;;;;;10.42;69.52;99883.97;10541962;28;20051;-77
2022/09/17 17:12:35;;;;;;;8.02;1.50;;;;;;;10.54;67.58;99877.53;10525128;28;20048;-77
2022/09/17 17:17:38;;;;;;;12.88;1.90;;;;;;;10.06;66.42;99889.75;10479435;28;20096;-75
2022/09/17 17:22:44;;;;;;;9.90;2.35;;;;;;;10.50;64.40;99868.03;10464703;28;20033;-77
2022/09/17 17:27:46;;;;;;;11.13;1.65;;;;;;;10.87;62.44;99881.72;10496579;28;20456;-76
2022/09/17 17:32:50;;;;;;;;;;;;;;;10.54;62.54;99896.34;10472654;28;20068;-78
2022/09/17 17:37:55;;;;;;;9.05;1.83;;;;;;;10.66;61.77;99886.31;10468217;28;20006;-77
2022/09/17 17:42:58;;;;;;;10.52;1.92;;;;;;;10.54;61.75;99899.03;10497589;28;20094;-77
2022/09/17 17:54:36;;;;;;;8.73;1.50;;;;;;;10.82;62.73;99916.22;10431851;28;19925;-80
2022/09/17 17:59:38;;;;;;;9.82;1.50;;;;;;;10.60;63.17;99922.63;10407954;28;20044;-78
2022/09/17 18:04:41;;;;;;;;;;;;;;;10.77;62.71;99927.34;10458433;22;20049;-78
2022/09/17 18:09:45;;;;;;;7.20;1.70;;;;;;;10.97;62.64;99930.09;10454743;28;19921;-78
2022/09/17 18:14:48;;;;;;;11.18;1.77;;;;;;;10.27;63.69;99926.47;10451732;28;20120;-78
2022/09/17 18:19:51;;;;;;;8.10;1.00;;;;;;;9.88;64.52;99929.75;10457081;28;20550;-79
2022/09/17 18:24:55;;;;;;;6.00;1.02;;;;;;;10.16;63.97;99951.53;10451447;28;20049;-77
2022/09/17 18:29:58;;;;;;;10.48;1.50;;;;;;;9.77;65.68;99951.25;10452315;28;20040;-78
2022/09/17 18:35:01;;;;;;;9.45;1.70;;;;;;;9.82;66.68;99954.41;10454606;28;20041;-78
2022/09/17 18:40:06;;;;;;;5.88;1.00;;;;;;;9.55;66.98;99948.69;10446232;28;20041;-77
2022/09/17 18:45:09;;;;;;;5.28;1.00;;;;;;;9.75;67.11;99966.63;10470326;28;20075;-77
2022/09/17 18:50:13;;;;;;;8.55;1.67;;;;;;;9.94;66.39;99980.19;10455066;28;20053;-77
2022/09/17 18:55:17;;;;;;;15.90;2.33;;;;;;;9.80;66.97;99980.50;10451600;28;20482;-80
2022/09/17 19:00:21;;;;;;;13.15;1.80;;;;;;;9.45;68.26;99991.47;10432044;28;20087;-80
2022/09/17 19:05:24;;;;;;;8.40;1.42;;;;;;;9.71;67.63;99994.69;10455663;28;20044;-80
2022/09/17 19:10:28;;;;;;;6.93;1.50;;;;;;;9.61;67.95;100001.78;10457037;28;20379;-78
2022/09/17 19:15:32;;;;;;;2.08;0.75;;;;;;;9.45;67.91;100010.25;10447886;28;20037;-78
2022/09/17 19:20:37;;;;;;;6.78;1.52;;;;;;;9.74;67.40;100007.84;10429294;28;20387;-78
2022/09/17 19:25:43;;;;;;;7.60;1.17;;;;;;;9.63;67.30;100010.56;10427272;28;20056;-78
2022/09/17 19:30:46;;;;;;;8.27;1.05;;;;;;;9.33;67.96;100008.59;10442361;28;20045;-79
2022/09/17 19:35:50;;;;;;;8.57;1.15;;;;;;;9.56;67.07;100020.09;10428449;28;20053;-79
2022/09/17 19:40:59;;;;;;;7.43;1.42;;;;;;;9.25;67.56;100015.41;10448054;28;20045;-79
2022/09/17 19:46:02;;;;;;;7.97;1.20;;;;;;;9.59;66.82;100023.34;10453097;28;20067;-78
2022/09/17 19:51:05;;;;;;;8.15;1.77;;;;;;;9.57;66.56;100005.69;10463927;28;20041;-78
2022/09/17 19:56:11;;;;;;;8.90;1.38;;;;;;;9.72;66.93;100017.84;10464499;28;20044;-78
2022/09/17 20:01:15;;;;;;;3.92;0.88;;;;;;;9.36;67.86;100025.25;10452341;28;20045;-77
2022/09/17 20:06:19;;;;;;;5.47;1.00;;;;;;;10.08;66.56;100021.97;10456645;28;20133;-78
2022/09/17 20:11:25;;;;;;;10.38;1.00;;;;;;;9.55;68.58;100021.94;10462687;28;20498;-77
2022/09/17 20:16:28;;;;;;;6.88;1.40;;;;;;;9.56;68.39;100026.28;10440714;28;20059;-78
2022/09/17 20:21:30;;;;;;;3.08;0.70;;;;;;;9.36;69.30;100035.13;10441609;28;20497;-79
2022/09/17 20:26:35;;;;;;;5.47;0.93;;;;;;;9.23;69.96;100032.59;10439865;28;20037;-79
2022/09/17 20:31:38;;;;;;;9.82;1.60;;;;;;;9.20;70.52;100032.84;10423453;28;20072;-77
2022/09/17 20:36:41;;;;;;;7.38;1.20;;;;;;;8.94;71.69;100024.22;10453762;28;20514;-78
2022/09/17 20:41:45;;;;;;;7.00;1.63;;;;;;;8.99;71.25;100032.72;10461175;28;20041;-79
2022/09/17 20:46:48;;;;;;;4.75;0.88;;;;;;;8.98;71.46;100031.03;10462899;28;20575;-79
2022/09/17 20:51:51;;;;;;;8.27;1.05;;;;;;;9.13;71.17;100027.09;10459878;28;20071;-78
2022/09/17 20:56:56;;;;;;;;;;;;;;;9.51;70.49;100036.53;10472968;28;20090;-78
2022/09/17 21:01:59;;;;;;;13.50;1.92;;;;;;;9.10;72.10;100050.63;10472020;28;19928;-79
2022/09/17 21:07:02;;;;;;;10.63;1.67;;;;;;;8.92;73.29;100050.28;10474294;28;20079;-77
2022/09/17 21:12:06;;;;;;;8.90;2.50;;;;;;;8.93;73.14;100049.28;10465741;28;20118;-79
2022/09/17 21:17:09;;;;;;;8.30;1.33;;;;;;;9.14;72.34;100044.91;10469078;28;20036;-79
2022/09/17 21:22:12;;;;;;;5.43;1.30;;;;;;;9.02;72.34;100052.13;10460584;28;20103;-78
2022/09/17 21:27:16;;;;;;;;;;;;;;;8.84;72.94;100050.88;10444530;28;20041;-78
2022/09/17 21:32:19;;;;;;;9.30;1.45;;;;;;;8.80;72.83;100058.31;10457972;28;19971;-81
2022/09/17 21:37:21;;;;;;;;;;;;;;;8.54;73.61;100035.41;10447138;28;20078;-78
2022/09/17 21:42:26;;;;;;;6.07;1.20;;;;;;;8.36;74.85;100062.59;10456557;28;19920;-81
2022/09/17 21:47:28;;;;;;;9.07;1.30;;;;;;;8.56;74.66;100062.91;10450937;28;20498;-79
2022/09/17 21:52:33;;;;;;;7.95;1.10;;;;;;;8.74;74.13;100047.22;10447941;28;20072;-79
2022/09/17 21:57:37;;;;;;;7.68;1.50;;;;;;;8.58;74.65;100047.56;10471283;28;20046;-79
2022/09/17 22:02:40;;;;;;;11.88;2.20;;;;;;;8.58;74.47;100044.88;10476303;28;20382;-79
2022/09/17 22:07:43;;;;;;;6.97;1.23;;;;;;;8.26;75.87;100056.25;10453242;28;20045;-78
2022/09/17 22:12:47;;;;;;;10.68;1.75;;;;;;;8.58;75.48;100047.56;10452523;28;20052;-78
2022/09/17 22:17:50;;;;;;;11.32;1.45;;;;;;;8.59;75.68;100057.31;10436633;28;20041;-78
2022/09/17 22:22:52;;;;;;;;;;;;;;;8.03;77.50;100049.09;10444214;28;20045;-78
2022/09/17 22:27:56;;;;;;;6.45;1.20;;;;;;;8.41;76.13;100054.19;10456110;28;20541;-78
2022/09/17 22:33:19;;;;;;;7.32;0.88;;;;;;;8.25;76.92;100064.38;10450639;28;20135;-78
2022/09/17 22:38:21;;;;;;;;;;;;;;;8.61;75.21;100069.63;10445376;28;20107;-78
2022/09/17 22:43:26;;;;;;;5.80;1.30;;;;;;;8.44;75.67;100058.47;10439435;28;19961;-78
2022/09/17 22:48:29;;;;;;;8.63;1.33;;;;;;;8.77;74.58;100066.56;10442818;28;20045;-78
2022/09/17 22:53:32;;;;;;;10.52;2.17;;;;;;;8.37;75.82;100053.59;10444418;28;20112;-78
2022/09/17 22:58:37;;;;;;;6.13;1.10;;;;;;;8.46;76.06;100059.25;10450055;28;20482;-77
2022/09/17 23:03:40;;;;;;;7.50;1.60;;;;;;;8.50;74.66;100056.22;10424647;28;20049;-78
2022/09/17 23:08:43;;;;;;;9.02;1.25;;;;;;;8.58;75.34;100053.78;10424007;28;20485;-78
2022/09/17 23:13:48;;;;;;;9.82;1.42;;;;;;;8.35;76.93;100060.88;10439140;28;20227;-79
2022/09/17 23:18:51;;;;;;;9.63;1.45;;;;;;;8.60;75.79;100059.00;10439914;28;20069;-78
2022/09/17 23:23:54;;;;;;;6.63;1.50;;;;;;;8.56;75.57;100061.09;10437174;28;20477;-78
2022/09/17 23:28:58;;;;;;;;;;;;;;;8.38;76.97;100060.63;10440895;28;20073;-78
2022/09/17 23:34:06;;;;;;;16.90;2.03;;;;;;;8.65;74.92;100054.16;10441232;28;19956;-78
2022/09/17 23:39:11;;;;;;;6.82;1.30;;;;;;;8.71;75.54;100055.50;10443582;28;20512;-78
2022/09/17 23:44:15;;;;;;;8.88;2.03;;;;;;;8.74;75.34;100052.56;10446000;28;20079;-78
2022/09/17 23:49:18;;;;;;;8.48;1.40;;;;;;;8.47;76.75;100063.59;10439951;28;20073;-78
2022/09/17 23:54:21;;;;;;;7.10;1.33;;;;;;;8.33;77.43;100060.13;10440779;28;20097;-78
2022/09/17 23:59:25;;;;;;;;;;;;;;;8.41;77.13;100062.22;10432929;28;20084;-78
